sensor_id;sensor_type;location;lat;lon;timestamp;pressure;altitude;pressure_sealevel;temperature;humidity
68199;BME280;55021;51.554;17.044;2023-03-14T00:00:26;98730.34;;;12.77;58.64
68199;BME280;55021;51.554;17.044;2023-03-14T00:15:49;98728.56;;;13.35;56.70
68199;BME280;55021;51.554;17.044;2023-03-14T00:30:51;98756.19;;;13.19;55.86
68199;BME280;55021;51.554;17.044;2023-03-14T00:45:53;98755.63;;;12.97;57.14
68199;BME280;55021;51.554;17.044;2023-03-14T01:00:56;98757.66;;;12.10;62.79
68199;BME280;55021;51.554;17.044;2023-03-14T01:16:02;98800.63;;;10.48;70.84
68199;BME280;55021;51.554;17.044;2023-03-14T01:31:06;98789.41;;;11.34;71.52
68199;BME280;55021;51.554;17.044;2023-03-14T01:46:25;98736.22;;;11.68;71.50
68199;BME280;55021;51.554;17.044;2023-03-14T02:01:30;98631.47;;;11.14;74.29
68199;BME280;55021;51.554;17.044;2023-03-14T02:16:35;98533.28;;;10.73;74.27
68199;BME280;55021;51.554;17.044;2023-03-14T02:31:38;98601.91;;;11.06;73.14
68199;BME280;55021;51.554;17.044;2023-03-14T02:46:41;98569.69;;;11.31;71.36
68199;BME280;55021;51.554;17.044;2023-03-14T03:01:45;98532.00;;;11.36;69.77
68199;BME280;55021;51.554;17.044;2023-03-14T03:16:47;98475.34;;;11.21;68.77
68199;BME280;55021;51.554;17.044;2023-03-14T03:31:50;98462.84;;;11.20;68.50
68199;BME280;55021;51.554;17.044;2023-03-14T03:46:52;98499.44;;;10.96;66.63
68199;BME280;55021;51.554;17.044;2023-03-14T04:01:55;98494.44;;;10.93;64.96
68199;BME280;55021;51.554;17.044;2023-03-14T04:16:57;98479.91;;;11.21;64.41
68199;BME280;55021;51.554;17.044;2023-03-14T04:32:00;98465.16;;;11.43;64.14
68199;BME280;55021;51.554;17.044;2023-03-14T04:47:04;98407.25;;;11.05;62.51
68199;BME280;55021;51.554;17.044;2023-03-14T05:02:07;98420.59;;;11.06;63.84
68199;BME280;55021;51.554;17.044;2023-03-14T05:17:12;98456.78;;;10.92;64.62
68199;BME280;55021;51.554;17.044;2023-03-14T05:32:15;98441.19;;;11.20;64.07
68199;BME280;55021;51.554;17.044;2023-03-14T05:47:17;98439.38;;;12.37;60.77
68199;BME280;55021;51.554;17.044;2023-03-14T06:02:19;98444.31;;;11.63;63.14
68199;BME280;55021;51.554;17.044;2023-03-14T06:17:23;98467.09;;;12.46;60.38
68199;BME280;55021;51.554;17.044;2023-03-14T06:32:40;98419.75;;;12.79;59.07
68199;BME280;55021;51.554;17.044;2023-03-14T06:47:43;98458.44;;;13.38;58.17
68199;BME280;55021;51.554;17.044;2023-03-14T07:02:45;98487.78;;;13.78;58.01
68199;BME280;55021;51.554;17.044;2023-03-14T07:17:48;98501.53;;;13.83;58.90
68199;BME280;55021;51.554;17.044;2023-03-14T07:32:56;98436.31;;;14.02;56.57
68199;BME280;55021;51.554;17.044;2023-03-14T07:47:58;98469.56;;;14.40;58.18
68199;BME280;55021;51.554;17.044;2023-03-14T08:03:01;98433.75;;;14.61;55.07
68199;BME280;55021;51.554;17.044;2023-03-14T08:18:05;98466.59;;;13.62;58.60
68199;BME280;55021;51.554;17.044;2023-03-14T08:33:09;98530.34;;;12.84;61.90
68199;BME280;55021;51.554;17.044;2023-03-14T08:48:12;98519.34;;;14.04;58.49
68199;BME280;55021;51.554;17.044;2023-03-14T09:03:15;98518.06;;;13.57;58.27
68199;BME280;55021;51.554;17.044;2023-03-14T09:18:18;98501.09;;;14.47;56.17
68199;BME280;55021;51.554;17.044;2023-03-14T09:33:21;98516.06;;;14.38;57.41
68199;BME280;55021;51.554;17.044;2023-03-14T09:48:29;98501.22;;;14.34;58.26
68199;BME280;55021;51.554;17.044;2023-03-14T10:03:34;98524.84;;;15.54;54.13
68199;BME280;55021;51.554;17.044;2023-03-14T10:18:37;98531.56;;;15.52;55.42
68199;BME280;55021;51.554;17.044;2023-03-14T10:33:40;98539.72;;;15.10;56.20
68199;BME280;55021;51.554;17.044;2023-03-14T10:48:43;98457.91;;;14.51;58.14
68199;BME280;55021;51.554;17.044;2023-03-14T11:03:56;98449.00;;;15.51;55.53
68199;BME280;55021;51.554;17.044;2023-03-14T11:19:31;98494.00;;;16.30;54.75
68199;BME280;55021;51.554;17.044;2023-03-14T11:34:45;98448.44;;;16.07;56.49
68199;BME280;55021;51.554;17.044;2023-03-14T11:49:53;98433.88;;;16.65;54.23
68199;BME280;55021;51.554;17.044;2023-03-14T12:20:36;98447.63;;;15.95;55.02
68199;BME280;55021;51.554;17.044;2023-03-14T12:35:41;98396.97;;;16.11;53.70
68199;BME280;55021;51.554;17.044;2023-03-14T12:50:46;98441.63;;;15.40;56.27
68199;BME280;55021;51.554;17.044;2023-03-14T13:05:57;98430.66;;;16.05;55.90
68199;BME280;55021;51.554;17.044;2023-03-14T13:21:03;98430.44;;;15.30;57.19
68199;BME280;55021;51.554;17.044;2023-03-14T13:36:09;98363.84;;;15.03;56.57
68199;BME280;55021;51.554;17.044;2023-03-14T13:51:13;98423.81;;;15.26;56.35
68199;BME280;55021;51.554;17.044;2023-03-14T14:06:26;98420.72;;;15.23;58.05
68199;BME280;55021;51.554;17.044;2023-03-14T14:21:29;98398.72;;;15.36;57.35
68199;BME280;55021;51.554;17.044;2023-03-14T14:36:52;98403.00;;;15.66;57.29
68199;BME280;55021;51.554;17.044;2023-03-14T14:52:01;98406.75;;;15.31;58.31
68199;BME280;55021;51.554;17.044;2023-03-14T15:07:30;98408.94;;;14.99;59.08
68199;BME280;55021;51.554;17.044;2023-03-14T15:22:34;98403.69;;;15.27;61.02
68199;BME280;55021;51.554;17.044;2023-03-14T15:37:44;98404.56;;;15.51;59.28
68199;BME280;55021;51.554;17.044;2023-03-14T15:52:54;98390.63;;;15.18;58.57
68199;BME280;55021;51.554;17.044;2023-03-14T16:07:57;98395.97;;;15.12;55.81
68199;BME280;55021;51.554;17.044;2023-03-14T16:23:11;98406.78;;;14.89;56.52
68199;BME280;55021;51.554;17.044;2023-03-14T16:38:13;98395.63;;;14.79;56.63
68199;BME280;55021;51.554;17.044;2023-03-14T16:53:17;98355.53;;;14.38;56.59
68199;BME280;55021;51.554;17.044;2023-03-14T17:08:20;98384.38;;;13.49;57.75
68199;BME280;55021;51.554;17.044;2023-03-14T17:23:25;98443.88;;;13.57;59.11
68199;BME280;55021;51.554;17.044;2023-03-14T17:38:30;98456.66;;;14.17;57.55
68199;BME280;55021;51.554;17.044;2023-03-14T17:53:33;98384.31;;;12.30;62.23
68199;BME280;55021;51.554;17.044;2023-03-14T18:08:36;98437.88;;;12.48;61.85
68199;BME280;55021;51.554;17.044;2023-03-14T18:23:44;98501.41;;;13.09;59.76
68199;BME280;55021;51.554;17.044;2023-03-14T18:38:47;98497.75;;;12.97;60.00
68199;BME280;55021;51.554;17.044;2023-03-14T18:53:51;98505.91;;;12.84;60.64
68199;BME280;55021;51.554;17.044;2023-03-14T19:09:00;98511.09;;;12.48;61.93
68199;BME280;55021;51.554;17.044;2023-03-14T19:24:04;98540.88;;;12.61;61.44
68199;BME280;55021;51.554;17.044;2023-03-14T19:39:06;98576.38;;;12.53;61.64
68199;BME280;55021;51.554;17.044;2023-03-14T19:54:11;98699.84;;;9.04;80.91
68199;BME280;55021;51.554;17.044;2023-03-14T20:09:15;98867.03;;;6.81;84.80
68199;BME280;55021;51.554;17.044;2023-03-14T20:24:19;98937.00;;;5.22;85.33
68199;BME280;55021;51.554;17.044;2023-03-14T20:39:26;99061.59;;;4.10;86.31
68199;BME280;55021;51.554;17.044;2023-03-14T20:54:33;99078.31;;;2.81;87.18
68199;BME280;55021;51.554;17.044;2023-03-14T21:09:38;99224.44;;;2.79;87.76
68199;BME280;55021;51.554;17.044;2023-03-14T21:24:43;99269.16;;;2.77;88.29
68199;BME280;55021;51.554;17.044;2023-03-14T21:39:45;99333.56;;;3.14;87.52
68199;BME280;55021;51.554;17.044;2023-03-14T21:54:51;99325.56;;;2.84;86.84
68199;BME280;55021;51.554;17.044;2023-03-14T22:10:00;99338.22;;;2.61;87.35
68199;BME280;55021;51.554;17.044;2023-03-14T22:25:03;99438.66;;;3.03;85.99
68199;BME280;55021;51.554;17.044;2023-03-14T22:40:11;99417.03;;;2.65;85.50
68199;BME280;55021;51.554;17.044;2023-03-14T22:55:14;99542.44;;;3.19;85.62
68199;BME280;55021;51.554;17.044;2023-03-14T23:10:17;99554.19;;;3.27;84.89
68199;BME280;55021;51.554;17.044;2023-03-14T23:25:19;99487.03;;;2.80;84.00
68199;BME280;55021;51.554;17.044;2023-03-14T23:40:28;99543.53;;;2.96;83.43
68199;BME280;55021;51.554;17.044;2023-03-14T23:55:35;99502.50;;;2.65;81.60
